Terminal Aerodrome Forecast
Issued by NWS

Home | Current Version | Previous Version | Graphics & Text | Print | Product List | Glossary On
Versions: 1 2 3 4 5 6 7 8 9 10 11 12 13 14 15
000
FTUS43 KICT 311100
TAFCNU
TAF
KCNU 311134Z 3112/0112 16009KT P6SM SKC
     FM311400 19014KT P6SM SCT200
     FM311800 19017G25KT P6SM SCT150
     FM010100 17018G27KT P6SM BKN200
     FM010800 17013KT P6SM VCTS BKN050CB=

USA.gov is the U.S. government's official web portal to all federal, state and local government web resources and services.